Terminal Aerodrome Forecast
Issued by NWS Tampa Bay Area, FL

Home | Current Version | Previous Version | Text Only | Print | Product List | Glossary On
Versions: 1 2 3 4 5 6 7 8 9 10 11 12 13 14 15 16
000
FTUS42 KTBW 220533
TAFFMY
TAF
KFMY 220533Z 2206/2306 VRB03KT P6SM FEW150
     FM220700 VRB03KT 4SM BR SCT005 SCT150
      TEMPO 2209/2213 1SM BR BKN005
     FM221500 13004KT P6SM SCT015 SCT150
     FM221900 29004KT P6SM SCT035 BKN150
     FM230100 09004KT P6SM SCT020 BKN100=

USA.gov is the U.S. government's official web portal to all federal, state and local government web resources and services.